sensor_id;sensor_type;location;lat;lon;timestamp;temperature;humidity
3053;DHT22;1536;51.098;6.414;2023-02-27T00:01:36;4.30;92.80
3053;DHT22;1536;51.098;6.414;2023-02-27T00:04:03;4.30;92.90
3053;DHT22;1536;51.098;6.414;2023-02-27T00:06:30;4.30;93.20
3053;DHT22;1536;51.098;6.414;2023-02-27T00:08:57;4.30;93.30
3053;DHT22;1536;51.098;6.414;2023-02-27T00:11:24;4.30;93.40
3053;DHT22;1536;51.098;6.414;2023-02-27T00:13:52;4.20;93.40
3053;DHT22;1536;51.098;6.414;2023-02-27T00:16:18;4.20;93.50
3053;DHT22;1536;51.098;6.414;2023-02-27T00:18:45;4.20;93.50
3053;DHT22;1536;51.098;6.414;2023-02-27T00:21:12;4.20;93.60
3053;DHT22;1536;51.098;6.414;2023-02-27T00:23:38;4.20;93.60
3053;DHT22;1536;51.098;6.414;2023-02-27T00:26:05;4.20;93.70
3053;DHT22;1536;51.098;6.414;2023-02-27T00:28:32;4.20;93.70
3053;DHT22;1536;51.098;6.414;2023-02-27T00:31:00;4.20;93.70
3053;DHT22;1536;51.098;6.414;2023-02-27T00:33:29;4.20;93.80
3053;DHT22;1536;51.098;6.414;2023-02-27T00:35:56;4.20;93.90
3053;DHT22;1536;51.098;6.414;2023-02-27T00:38:23;4.20;94.00
3053;DHT22;1536;51.098;6.414;2023-02-27T00:40:50;4.10;94.00
3053;DHT22;1536;51.098;6.414;2023-02-27T00:43:16;4.10;94.00
3053;DHT22;1536;51.098;6.414;2023-02-27T00:45:43;4.10;94.20
3053;DHT22;1536;51.098;6.414;2023-02-27T00:48:11;4.00;94.10
3053;DHT22;1536;51.098;6.414;2023-02-27T00:50:38;4.00;94.30
3053;DHT22;1536;51.098;6.414;2023-02-27T00:53:04;4.00;94.40
3053;DHT22;1536;51.098;6.414;2023-02-27T00:55:31;4.00;94.60
3053;DHT22;1536;51.098;6.414;2023-02-27T00:57:58;4.00;95.10
3053;DHT22;1536;51.098;6.414;2023-02-27T01:00:25;4.00;94.90
3053;DHT22;1536;51.098;6.414;2023-02-27T01:02:51;3.90;94.90
3053;DHT22;1536;51.098;6.414;2023-02-27T01:05:20;3.90;95.00
3053;DHT22;1536;51.098;6.414;2023-02-27T01:07:46;3.90;95.10
3053;DHT22;1536;51.098;6.414;2023-02-27T01:10:13;3.90;95.20
3053;DHT22;1536;51.098;6.414;2023-02-27T01:12:40;3.90;95.30
3053;DHT22;1536;51.098;6.414;2023-02-27T01:15:08;3.90;95.30
3053;DHT22;1536;51.098;6.414;2023-02-27T01:17:35;3.90;95.40
3053;DHT22;1536;51.098;6.414;2023-02-27T01:20:03;3.90;95.50
3053;DHT22;1536;51.098;6.414;2023-02-27T01:22:31;3.90;95.60
3053;DHT22;1536;51.098;6.414;2023-02-27T01:24:58;3.90;95.80
3053;DHT22;1536;51.098;6.414;2023-02-27T01:27:25;3.90;95.90
3053;DHT22;1536;51.098;6.414;2023-02-27T01:29:52;3.80;95.90
3053;DHT22;1536;51.098;6.414;2023-02-27T01:32:19;3.80;96.00
3053;DHT22;1536;51.098;6.414;2023-02-27T01:34:45;3.80;96.00
3053;DHT22;1536;51.098;6.414;2023-02-27T01:37:12;3.80;96.10
3053;DHT22;1536;51.098;6.414;2023-02-27T01:39:40;3.80;96.20
3053;DHT22;1536;51.098;6.414;2023-02-27T01:42:17;3.80;96.30
3053;DHT22;1536;51.098;6.414;2023-02-27T01:45:21;3.80;96.30
3053;DHT22;1536;51.098;6.414;2023-02-27T01:47:52;3.80;96.30
3053;DHT22;1536;51.098;6.414;2023-02-27T01:50:19;3.80;96.40
3053;DHT22;1536;51.098;6.414;2023-02-27T01:52:50;3.70;96.50
3053;DHT22;1536;51.098;6.414;2023-02-27T01:55:19;3.70;96.60
3053;DHT22;1536;51.098;6.414;2023-02-27T01:57:47;3.60;96.60
3053;DHT22;1536;51.098;6.414;2023-02-27T02:00:15;3.60;96.80
3053;DHT22;1536;51.098;6.414;2023-02-27T02:02:51;3.60;96.90
3053;DHT22;1536;51.098;6.414;2023-02-27T02:05:21;3.50;97.00
3053;DHT22;1536;51.098;6.414;2023-02-27T02:07:48;3.50;97.20
3053;DHT22;1536;51.098;6.414;2023-02-27T02:10:16;3.50;97.30
3053;DHT22;1536;51.098;6.414;2023-02-27T02:12:45;3.50;97.50
3053;DHT22;1536;51.098;6.414;2023-02-27T02:15:12;3.40;97.60
3053;DHT22;1536;51.098;6.414;2023-02-27T02:17:45;3.30;97.70
3053;DHT22;1536;51.098;6.414;2023-02-27T02:20:53;3.30;97.90
3053;DHT22;1536;51.098;6.414;2023-02-27T02:23:53;3.30;98.10
3053;DHT22;1536;51.098;6.414;2023-02-27T02:35:52;3.30;98.60
3053;DHT22;1536;51.098;6.414;2023-02-27T02:38:47;3.20;98.70
3053;DHT22;1536;51.098;6.414;2023-02-27T02:41:22;3.20;98.80
3053;DHT22;1536;51.098;6.414;2023-02-27T02:43:59;3.10;98.90
3053;DHT22;1536;51.098;6.414;2023-02-27T02:46:32;3.10;99.00
3053;DHT22;1536;51.098;6.414;2023-02-27T02:49:04;3.00;99.10
3053;DHT22;1536;51.098;6.414;2023-02-27T02:51:40;3.00;99.30
3053;DHT22;1536;51.098;6.414;2023-02-27T02:54:15;3.00;99.40
3053;DHT22;1536;51.098;6.414;2023-02-27T02:56:46;3.00;99.60
3053;DHT22;1536;51.098;6.414;2023-02-27T02:59:21;2.90;99.70
3053;DHT22;1536;51.098;6.414;2023-02-27T03:01:52;2.90;99.90
3053;DHT22;1536;51.098;6.414;2023-02-27T03:04:27;2.90;99.90
3053;DHT22;1536;51.098;6.414;2023-02-27T03:07:00;2.90;99.90
3053;DHT22;1536;51.098;6.414;2023-02-27T03:09:34;2.90;99.90
3053;DHT22;1536;51.098;6.414;2023-02-27T03:12:02;2.90;99.90
3053;DHT22;1536;51.098;6.414;2023-02-27T03:14:35;2.90;99.90
3053;DHT22;1536;51.098;6.414;2023-02-27T03:17:05;2.90;99.90
3053;DHT22;1536;51.098;6.414;2023-02-27T03:19:40;3.00;99.90
3053;DHT22;1536;51.098;6.414;2023-02-27T03:22:14;3.00;99.90
3053;DHT22;1536;51.098;6.414;2023-02-27T03:24:46;2.90;99.90
3053;DHT22;1536;51.098;6.414;2023-02-27T03:27:15;2.90;99.90
3053;DHT22;1536;51.098;6.414;2023-02-27T03:29:49;2.90;99.90
3053;DHT22;1536;51.098;6.414;2023-02-27T03:32:20;3.00;99.90
3053;DHT22;1536;51.098;6.414;2023-02-27T03:34:48;2.90;99.90
3053;DHT22;1536;51.098;6.414;2023-02-27T03:37:21;2.90;99.90
3053;DHT22;1536;51.098;6.414;2023-02-27T03:39:56;2.90;99.90
3053;DHT22;1536;51.098;6.414;2023-02-27T03:42:31;2.90;99.90
3053;DHT22;1536;51.098;6.414;2023-02-27T03:45:03;2.80;99.90
3053;DHT22;1536;51.098;6.414;2023-02-27T03:47:32;2.80;99.90
3053;DHT22;1536;51.098;6.414;2023-02-27T03:49:59;2.80;99.90
3053;DHT22;1536;51.098;6.414;2023-02-27T03:52:27;2.80;99.90
3053;DHT22;1536;51.098;6.414;2023-02-27T03:54:59;2.80;99.90
3053;DHT22;1536;51.098;6.414;2023-02-27T03:57:27;2.80;99.90
3053;DHT22;1536;51.098;6.414;2023-02-27T03:59:54;2.80;99.90
3053;DHT22;1536;51.098;6.414;2023-02-27T04:02:21;2.80;99.90
3053;DHT22;1536;51.098;6.414;2023-02-27T04:04:49;2.80;99.90
3053;DHT22;1536;51.098;6.414;2023-02-27T04:07:22;2.80;99.90
3053;DHT22;1536;51.098;6.414;2023-02-27T04:10:15;2.80;99.90
3053;DHT22;1536;51.098;6.414;2023-02-27T04:13:04;2.80;99.90
3053;DHT22;1536;51.098;6.414;2023-02-27T04:15:42;2.80;99.90
3053;DHT22;1536;51.098;6.414;2023-02-27T04:18:20;2.80;99.90
3053;DHT22;1536;51.098;6.414;2023-02-27T04:20:53;2.80;99.90
3053;DHT22;1536;51.098;6.414;2023-02-27T04:23:32;2.80;99.90
3053;DHT22;1536;51.098;6.414;2023-02-27T04:26:10;2.80;99.90
3053;DHT22;1536;51.098;6.414;2023-02-27T04:28:44;2.70;99.90
3053;DHT22;1536;51.098;6.414;2023-02-27T04:31:16;2.70;99.90
3053;DHT22;1536;51.098;6.414;2023-02-27T04:33:48;2.80;99.90
3053;DHT22;1536;51.098;6.414;2023-02-27T04:36:22;2.70;99.90
3053;DHT22;1536;51.098;6.414;2023-02-27T04:38:59;2.80;99.90
3053;DHT22;1536;51.098;6.414;2023-02-27T04:41:32;2.70;99.90
3053;DHT22;1536;51.098;6.414;2023-02-27T04:44:02;2.70;99.90
3053;DHT22;1536;51.098;6.414;2023-02-27T04:46:31;2.80;99.90
3053;DHT22;1536;51.098;6.414;2023-02-27T04:49:03;2.70;99.90
3053;DHT22;1536;51.098;6.414;2023-02-27T04:51:34;2.70;99.90
3053;DHT22;1536;51.098;6.414;2023-02-27T04:54:07;2.70;99.90
3053;DHT22;1536;51.098;6.414;2023-02-27T04:56:40;2.70;99.90
3053;DHT22;1536;51.098;6.414;2023-02-27T04:59:12;2.70;99.90
3053;DHT22;1536;51.098;6.414;2023-02-27T05:01:43;2.70;99.90
3053;DHT22;1536;51.098;6.414;2023-02-27T05:04:15;2.70;99.90
3053;DHT22;1536;51.098;6.414;2023-02-27T05:06:47;2.60;99.90
3053;DHT22;1536;51.098;6.414;2023-02-27T05:09:20;2.60;99.90
3053;DHT22;1536;51.098;6.414;2023-02-27T05:11:53;2.60;99.90
3053;DHT22;1536;51.098;6.414;2023-02-27T05:14:28;2.60;99.90
3053;DHT22;1536;51.098;6.414;2023-02-27T05:17:02;2.60;99.90
3053;DHT22;1536;51.098;6.414;2023-02-27T05:19:30;2.50;99.90
3053;DHT22;1536;51.098;6.414;2023-02-27T05:22:04;2.50;99.90
3053;DHT22;1536;51.098;6.414;2023-02-27T05:24:40;2.60;99.90
3053;DHT22;1536;51.098;6.414;2023-02-27T05:27:19;2.50;99.90
3053;DHT22;1536;51.098;6.414;2023-02-27T05:29:49;2.50;99.90
3053;DHT22;1536;51.098;6.414;2023-02-27T05:32:28;2.60;99.90
3053;DHT22;1536;51.098;6.414;2023-02-27T05:35:03;2.50;99.90
3053;DHT22;1536;51.098;6.414;2023-02-27T05:37:34;2.50;99.90
3053;DHT22;1536;51.098;6.414;2023-02-27T05:40:04;2.50;99.90
3053;DHT22;1536;51.098;6.414;2023-02-27T05:42:38;2.50;99.90
3053;DHT22;1536;51.098;6.414;2023-02-27T05:45:08;2.50;99.90
3053;DHT22;1536;51.098;6.414;2023-02-27T05:47:40;2.50;99.90
3053;DHT22;1536;51.098;6.414;2023-02-27T05:50:10;2.50;99.90
3053;DHT22;1536;51.098;6.414;2023-02-27T05:52:39;2.50;99.90
3053;DHT22;1536;51.098;6.414;2023-02-27T05:55:11;2.50;99.90
3053;DHT22;1536;51.098;6.414;2023-02-27T05:57:42;2.50;99.90
3053;DHT22;1536;51.098;6.414;2023-02-27T06:00:13;2.50;99.90
3053;DHT22;1536;51.098;6.414;2023-02-27T06:02:42;2.50;99.90
3053;DHT22;1536;51.098;6.414;2023-02-27T06:05:11;2.50;99.90
3053;DHT22;1536;51.098;6.414;2023-02-27T06:07:38;2.50;99.90
3053;DHT22;1536;51.098;6.414;2023-02-27T06:10:06;2.50;99.90
3053;DHT22;1536;51.098;6.414;2023-02-27T06:12:33;2.50;99.90
3053;DHT22;1536;51.098;6.414;2023-02-27T06:15:01;2.50;99.90
3053;DHT22;1536;51.098;6.414;2023-02-27T06:17:27;2.50;99.90
3053;DHT22;1536;51.098;6.414;2023-02-27T06:19:54;2.50;99.90
3053;DHT22;1536;51.098;6.414;2023-02-27T06:22:21;2.50;99.90
3053;DHT22;1536;51.098;6.414;2023-02-27T06:24:48;2.40;99.90
3053;DHT22;1536;51.098;6.414;2023-02-27T06:27:14;2.40;99.90
3053;DHT22;1536;51.098;6.414;2023-02-27T06:29:41;2.40;99.90
3053;DHT22;1536;51.098;6.414;2023-02-27T06:32:09;2.40;99.90
3053;DHT22;1536;51.098;6.414;2023-02-27T06:34:36;2.40;99.90
3053;DHT22;1536;51.098;6.414;2023-02-27T06:37:02;2.30;99.90
3053;DHT22;1536;51.098;6.414;2023-02-27T06:39:29;2.30;99.90
3053;DHT22;1536;51.098;6.414;2023-02-27T06:41:57;2.40;99.90
3053;DHT22;1536;51.098;6.414;2023-02-27T06:44:23;2.30;99.90
3053;DHT22;1536;51.098;6.414;2023-02-27T06:46:50;2.30;99.90
3053;DHT22;1536;51.098;6.414;2023-02-27T06:49:18;2.40;99.90
3053;DHT22;1536;51.098;6.414;2023-02-27T06:51:45;2.30;99.90
3053;DHT22;1536;51.098;6.414;2023-02-27T06:54:12;2.30;99.90
3053;DHT22;1536;51.098;6.414;2023-02-27T06:56:39;2.40;99.90
3053;DHT22;1536;51.098;6.414;2023-02-27T06:59:06;2.40;99.90
3053;DHT22;1536;51.098;6.414;2023-02-27T07:01:32;2.40;99.90
3053;DHT22;1536;51.098;6.414;2023-02-27T07:03:59;2.40;99.90
3053;DHT22;1536;51.098;6.414;2023-02-27T07:06:27;2.50;99.90
3053;DHT22;1536;51.098;6.414;2023-02-27T07:08:54;2.50;99.90
3053;DHT22;1536;51.098;6.414;2023-02-27T07:11:21;2.60;99.90
3053;DHT22;1536;51.098;6.414;2023-02-27T07:13:47;2.60;99.90
3053;DHT22;1536;51.098;6.414;2023-02-27T07:16:14;2.60;99.90
3053;DHT22;1536;51.098;6.414;2023-02-27T07:18:41;2.70;99.90
3053;DHT22;1536;51.098;6.414;2023-02-27T07:21:07;2.70;99.90
3053;DHT22;1536;51.098;6.414;2023-02-27T07:23:36;2.80;99.90
3053;DHT22;1536;51.098;6.414;2023-02-27T07:26:03;2.80;99.90
3053;DHT22;1536;51.098;6.414;2023-02-27T07:28:30;2.80;99.90
3053;DHT22;1536;51.098;6.414;2023-02-27T07:30:56;2.90;99.90
3053;DHT22;1536;51.098;6.414;2023-02-27T07:33:23;2.90;99.90
3053;DHT22;1536;51.098;6.414;2023-02-27T07:35:50;2.90;99.90
3053;DHT22;1536;51.098;6.414;2023-02-27T07:38:17;2.90;99.90
3053;DHT22;1536;51.098;6.414;2023-02-27T07:40:48;2.90;99.90
3053;DHT22;1536;51.098;6.414;2023-02-27T07:43:14;3.00;99.90
3053;DHT22;1536;51.098;6.414;2023-02-27T07:45:41;3.00;99.90
3053;DHT22;1536;51.098;6.414;2023-02-27T07:48:08;3.00;99.90
3053;DHT22;1536;51.098;6.414;2023-02-27T07:50:35;3.00;99.90
3053;DHT22;1536;51.098;6.414;2023-02-27T07:53:01;3.00;99.90
3053;DHT22;1536;51.098;6.414;2023-02-27T07:55:29;3.10;99.90
3053;DHT22;1536;51.098;6.414;2023-02-27T07:57:58;3.10;99.90
3053;DHT22;1536;51.098;6.414;2023-02-27T08:00:24;3.00;99.90
3053;DHT22;1536;51.098;6.414;2023-02-27T08:02:51;3.00;99.90
3053;DHT22;1536;51.098;6.414;2023-02-27T08:05:18;3.00;99.90
3053;DHT22;1536;51.098;6.414;2023-02-27T08:07:45;3.00;99.90
3053;DHT22;1536;51.098;6.414;2023-02-27T08:10:12;3.10;99.90
3053;DHT22;1536;51.098;6.414;2023-02-27T08:12:40;3.10;99.90
3053;DHT22;1536;51.098;6.414;2023-02-27T08:15:09;3.10;99.90
3053;DHT22;1536;51.098;6.414;2023-02-27T08:17:36;3.10;99.90
3053;DHT22;1536;51.098;6.414;2023-02-27T08:20:03;3.20;99.90
3053;DHT22;1536;51.098;6.414;2023-02-27T08:22:32;3.30;99.90
3053;DHT22;1536;51.098;6.414;2023-02-27T08:24:59;3.30;99.90
3053;DHT22;1536;51.098;6.414;2023-02-27T08:27:26;3.40;99.90
3053;DHT22;1536;51.098;6.414;2023-02-27T08:29:53;3.40;99.90
3053;DHT22;1536;51.098;6.414;2023-02-27T08:32:21;3.50;99.90
3053;DHT22;1536;51.098;6.414;2023-02-27T08:34:48;3.50;99.90
3053;DHT22;1536;51.098;6.414;2023-02-27T08:37:14;3.60;99.90
3053;DHT22;1536;51.098;6.414;2023-02-27T08:39:41;3.60;99.90
3053;DHT22;1536;51.098;6.414;2023-02-27T08:42:08;3.60;99.90
3053;DHT22;1536;51.098;6.414;2023-02-27T08:44:35;3.70;99.90
3053;DHT22;1536;51.098;6.414;2023-02-27T08:47:01;3.80;99.90
3053;DHT22;1536;51.098;6.414;2023-02-27T08:49:30;3.80;99.90
3053;DHT22;1536;51.098;6.414;2023-02-27T08:51:56;3.80;99.90
3053;DHT22;1536;51.098;6.414;2023-02-27T08:54:23;3.90;99.90
3053;DHT22;1536;51.098;6.414;2023-02-27T08:56:50;3.90;99.90
3053;DHT22;1536;51.098;6.414;2023-02-27T08:59:17;4.00;99.90
3053;DHT22;1536;51.098;6.414;2023-02-27T09:01:43;3.90;99.90
3053;DHT22;1536;51.098;6.414;2023-02-27T09:04:10;4.00;99.90
3053;DHT22;1536;51.098;6.414;2023-02-27T09:06:38;4.00;99.90
3053;DHT22;1536;51.098;6.414;2023-02-27T09:09:05;4.00;99.90
3053;DHT22;1536;51.098;6.414;2023-02-27T09:11:32;4.10;99.90
3053;DHT22;1536;51.098;6.414;2023-02-27T09:13:59;4.20;99.90
3053;DHT22;1536;51.098;6.414;2023-02-27T09:16:26;4.10;99.90
3053;DHT22;1536;51.098;6.414;2023-02-27T09:18:52;4.20;99.90
3053;DHT22;1536;51.098;6.414;2023-02-27T09:21:19;4.20;99.90
3053;DHT22;1536;51.098;6.414;2023-02-27T09:23:48;4.20;99.90
3053;DHT22;1536;51.098;6.414;2023-02-27T09:26:15;4.20;99.90
3053;DHT22;1536;51.098;6.414;2023-02-27T09:28:42;4.30;99.90
3053;DHT22;1536;51.098;6.414;2023-02-27T09:31:09;4.20;99.90
3053;DHT22;1536;51.098;6.414;2023-02-27T09:33:37;4.30;99.90
3053;DHT22;1536;51.098;6.414;2023-02-27T09:36:04;4.30;99.90
3053;DHT22;1536;51.098;6.414;2023-02-27T09:38:31;4.40;99.90
3053;DHT22;1536;51.098;6.414;2023-02-27T09:41:00;4.50;99.90
3053;DHT22;1536;51.098;6.414;2023-02-27T09:43:33;4.60;99.90
3053;DHT22;1536;51.098;6.414;2023-02-27T09:46:02;4.60;99.90
3053;DHT22;1536;51.098;6.414;2023-02-27T09:48:33;4.70;99.90
3053;DHT22;1536;51.098;6.414;2023-02-27T09:51:02;4.60;99.90
3053;DHT22;1536;51.098;6.414;2023-02-27T09:53:33;4.70;99.90
3053;DHT22;1536;51.098;6.414;2023-02-27T09:56:07;4.70;99.90
3053;DHT22;1536;51.098;6.414;2023-02-27T09:58:42;4.80;99.90
3053;DHT22;1536;51.098;6.414;2023-02-27T10:01:15;4.80;99.90
3053;DHT22;1536;51.098;6.414;2023-02-27T10:04:14;4.90;99.90
3053;DHT22;1536;51.098;6.414;2023-02-27T10:06:48;4.90;99.90
3053;DHT22;1536;51.098;6.414;2023-02-27T10:12:14;5.00;99.90
3053;DHT22;1536;51.098;6.414;2023-02-27T10:14:46;5.10;99.90
3053;DHT22;1536;51.098;6.414;2023-02-27T10:17:20;5.00;99.90
3053;DHT22;1536;51.098;6.414;2023-02-27T10:19:49;5.10;99.90
3053;DHT22;1536;51.098;6.414;2023-02-27T10:22:20;5.20;99.90
3053;DHT22;1536;51.098;6.414;2023-02-27T10:24:52;5.20;99.90
3053;DHT22;1536;51.098;6.414;2023-02-27T10:27:22;5.20;99.90
3053;DHT22;1536;51.098;6.414;2023-02-27T10:29:49;5.20;99.90
3053;DHT22;1536;51.098;6.414;2023-02-27T10:32:20;5.20;99.90
3053;DHT22;1536;51.098;6.414;2023-02-27T10:34:50;5.30;99.90
3053;DHT22;1536;51.098;6.414;2023-02-27T10:37:20;5.30;99.90
3053;DHT22;1536;51.098;6.414;2023-02-27T10:39:52;5.30;99.90
3053;DHT22;1536;51.098;6.414;2023-02-27T10:42:23;5.40;99.90
3053;DHT22;1536;51.098;6.414;2023-02-27T10:44:51;5.40;99.90
3053;DHT22;1536;51.098;6.414;2023-02-27T10:47:21;5.50;99.90
3053;DHT22;1536;51.098;6.414;2023-02-27T10:49:48;5.50;99.90
3053;DHT22;1536;51.098;6.414;2023-02-27T10:52:16;5.60;99.90
3053;DHT22;1536;51.098;6.414;2023-02-27T10:54:44;5.60;99.90
3053;DHT22;1536;51.098;6.414;2023-02-27T10:57:26;5.60;99.90
3053;DHT22;1536;51.098;6.414;2023-02-27T10:59:57;5.70;99.90
3053;DHT22;1536;51.098;6.414;2023-02-27T11:02:34;5.70;99.70
3053;DHT22;1536;51.098;6.414;2023-02-27T11:05:02;5.80;99.60
3053;DHT22;1536;51.098;6.414;2023-02-27T11:07:33;5.80;99.40
3053;DHT22;1536;51.098;6.414;2023-02-27T11:10:03;5.90;98.80
3053;DHT22;1536;51.098;6.414;2023-02-27T11:12:34;5.90;98.50
3053;DHT22;1536;51.098;6.414;2023-02-27T11:15:03;5.90;98.00
3053;DHT22;1536;51.098;6.414;2023-02-27T11:17:46;6.00;97.90
3053;DHT22;1536;51.098;6.414;2023-02-27T11:20:33;6.00;97.60
3053;DHT22;1536;51.098;6.414;2023-02-27T11:23:03;6.10;97.50
3053;DHT22;1536;51.098;6.414;2023-02-27T11:25:30;6.10;97.40
3053;DHT22;1536;51.098;6.414;2023-02-27T11:28:13;6.20;97.50
3053;DHT22;1536;51.098;6.414;2023-02-27T11:30:42;6.30;97.40
3053;DHT22;1536;51.098;6.414;2023-02-27T11:33:16;6.40;97.30
3053;DHT22;1536;51.098;6.414;2023-02-27T11:35:49;6.50;97.10
3053;DHT22;1536;51.098;6.414;2023-02-27T11:38:20;6.60;97.10
3053;DHT22;1536;51.098;6.414;2023-02-27T11:40:52;6.60;96.40
3053;DHT22;1536;51.098;6.414;2023-02-27T11:43:22;6.60;95.90
3053;DHT22;1536;51.098;6.414;2023-02-27T11:45:52;6.70;96.00
3053;DHT22;1536;51.098;6.414;2023-02-27T11:48:22;6.70;95.50
3053;DHT22;1536;51.098;6.414;2023-02-27T11:51:10;6.70;95.70
3053;DHT22;1536;51.098;6.414;2023-02-27T11:54:04;6.70;96.00
3053;DHT22;1536;51.098;6.414;2023-02-27T11:56:35;6.70;95.30
3053;DHT22;1536;51.098;6.414;2023-02-27T11:59:13;6.80;95.60
3053;DHT22;1536;51.098;6.414;2023-02-27T12:01:47;6.80;95.60
3053;DHT22;1536;51.098;6.414;2023-02-27T12:04:20;6.90;95.80
3053;DHT22;1536;51.098;6.414;2023-02-27T12:06:52;6.90;95.60
3053;DHT22;1536;51.098;6.414;2023-02-27T12:09:36;6.90;95.50
3053;DHT22;1536;51.098;6.414;2023-02-27T12:12:08;6.90;95.20
3053;DHT22;1536;51.098;6.414;2023-02-27T12:14:46;6.90;95.10
3053;DHT22;1536;51.098;6.414;2023-02-27T12:17:20;6.90;94.60
3053;DHT22;1536;51.098;6.414;2023-02-27T12:19:57;6.90;94.40
3053;DHT22;1536;51.098;6.414;2023-02-27T12:22:28;6.90;94.40
3053;DHT22;1536;51.098;6.414;2023-02-27T12:25:01;6.80;93.60
3053;DHT22;1536;51.098;6.414;2023-02-27T12:27:38;6.80;93.80
3053;DHT22;1536;51.098;6.414;2023-02-27T12:30:14;6.80;93.90
3053;DHT22;1536;51.098;6.414;2023-02-27T12:32:44;6.80;93.90
3053;DHT22;1536;51.098;6.414;2023-02-27T12:35:16;6.80;94.10
3053;DHT22;1536;51.098;6.414;2023-02-27T12:37:45;6.70;93.30
3053;DHT22;1536;51.098;6.414;2023-02-27T12:40:14;6.80;93.70
3053;DHT22;1536;51.098;6.414;2023-02-27T12:43:05;6.80;93.80
3053;DHT22;1536;51.098;6.414;2023-02-27T12:45:51;6.80;93.90
3053;DHT22;1536;51.098;6.414;2023-02-27T12:48:26;6.90;94.00
3053;DHT22;1536;51.098;6.414;2023-02-27T12:51:00;6.90;93.60
3053;DHT22;1536;51.098;6.414;2023-02-27T12:53:41;7.00;93.90
3053;DHT22;1536;51.098;6.414;2023-02-27T12:56:14;7.00;93.10
3053;DHT22;1536;51.098;6.414;2023-02-27T12:58:49;7.10;93.40
3053;DHT22;1536;51.098;6.414;2023-02-27T13:01:30;7.20;93.70
3053;DHT22;1536;51.098;6.414;2023-02-27T13:04:04;7.20;93.40
3053;DHT22;1536;51.098;6.414;2023-02-27T13:06:41;7.20;93.50
3053;DHT22;1536;51.098;6.414;2023-02-27T13:09:20;7.30;93.00
3053;DHT22;1536;51.098;6.414;2023-02-27T13:11:59;7.20;91.60
3053;DHT22;1536;51.098;6.414;2023-02-27T13:14:34;7.20;92.10
3053;DHT22;1536;51.098;6.414;2023-02-27T13:17:11;7.20;91.90
3053;DHT22;1536;51.098;6.414;2023-02-27T13:19:47;7.20;92.00
3053;DHT22;1536;51.098;6.414;2023-02-27T13:22:22;7.30;92.50
3053;DHT22;1536;51.098;6.414;2023-02-27T13:24:57;7.40;92.80
3053;DHT22;1536;51.098;6.414;2023-02-27T13:27:26;7.40;92.90
3053;DHT22;1536;51.098;6.414;2023-02-27T13:30:04;7.40;92.90
3053;DHT22;1536;51.098;6.414;2023-02-27T13:32:39;7.40;91.80
3053;DHT22;1536;51.098;6.414;2023-02-27T13:35:16;7.40;91.70
3053;DHT22;1536;51.098;6.414;2023-02-27T13:37:51;7.40;91.70
3053;DHT22;1536;51.098;6.414;2023-02-27T13:40:33;7.40;91.90
3053;DHT22;1536;51.098;6.414;2023-02-27T13:43:03;7.40;91.60
3053;DHT22;1536;51.098;6.414;2023-02-27T13:45:53;7.40;90.50
3053;DHT22;1536;51.098;6.414;2023-02-27T13:48:42;7.40;90.90
3053;DHT22;1536;51.098;6.414;2023-02-27T13:54:24;7.60;90.80
3053;DHT22;1536;51.098;6.414;2023-02-27T13:59:58;7.70;90.90
3053;DHT22;1536;51.098;6.414;2023-02-27T14:02:40;7.70;90.60
3053;DHT22;1536;51.098;6.414;2023-02-27T14:05:11;7.70;90.80
3053;DHT22;1536;51.098;6.414;2023-02-27T14:07:58;7.70;90.50
3053;DHT22;1536;51.098;6.414;2023-02-27T14:10:26;7.70;90.40
3053;DHT22;1536;51.098;6.414;2023-02-27T14:12:54;7.50;89.90
3053;DHT22;1536;51.098;6.414;2023-02-27T14:15:49;7.50;90.30
3053;DHT22;1536;51.098;6.414;2023-02-27T14:18:49;7.40;90.40
3053;DHT22;1536;51.098;6.414;2023-02-27T14:21:56;7.40;90.20
3053;DHT22;1536;51.098;6.414;2023-02-27T14:24:27;7.50;90.50
3053;DHT22;1536;51.098;6.414;2023-02-27T14:26:56;7.40;90.10
3053;DHT22;1536;51.098;6.414;2023-02-27T14:29:26;7.30;90.70
3053;DHT22;1536;51.098;6.414;2023-02-27T14:31:56;7.30;91.00
3053;DHT22;1536;51.098;6.414;2023-02-27T14:34:25;7.40;91.30
3053;DHT22;1536;51.098;6.414;2023-02-27T14:36:54;7.50;91.60
3053;DHT22;1536;51.098;6.414;2023-02-27T14:39:26;7.60;91.00
3053;DHT22;1536;51.098;6.414;2023-02-27T14:42:07;7.60;90.80
3053;DHT22;1536;51.098;6.414;2023-02-27T14:44:38;7.60;90.70
3053;DHT22;1536;51.098;6.414;2023-02-27T14:47:12;7.60;89.80
3053;DHT22;1536;51.098;6.414;2023-02-27T14:49:40;7.50;89.90
3053;DHT22;1536;51.098;6.414;2023-02-27T14:52:12;7.60;90.10
3053;DHT22;1536;51.098;6.414;2023-02-27T14:54:40;7.50;88.90
3053;DHT22;1536;51.098;6.414;2023-02-27T14:57:15;7.50;89.40
3053;DHT22;1536;51.098;6.414;2023-02-27T14:59:43;7.50;90.00
3053;DHT22;1536;51.098;6.414;2023-02-27T15:02:18;7.60;90.20
3053;DHT22;1536;51.098;6.414;2023-02-27T15:04:46;7.60;90.30
3053;DHT22;1536;51.098;6.414;2023-02-27T15:07:17;7.60;88.90
3053;DHT22;1536;51.098;6.414;2023-02-27T15:09:53;7.60;89.50
3053;DHT22;1536;51.098;6.414;2023-02-27T15:12:21;7.70;90.10
3053;DHT22;1536;51.098;6.414;2023-02-27T15:14:51;7.80;88.80
3053;DHT22;1536;51.098;6.414;2023-02-27T15:17:19;7.80;89.50
3053;DHT22;1536;51.098;6.414;2023-02-27T15:19:49;7.70;88.10
3053;DHT22;1536;51.098;6.414;2023-02-27T15:22:18;7.70;88.70
3053;DHT22;1536;51.098;6.414;2023-02-27T15:24:46;7.70;87.70
3053;DHT22;1536;51.098;6.414;2023-02-27T15:27:16;7.70;87.50
3053;DHT22;1536;51.098;6.414;2023-02-27T15:29:46;7.80;88.50
3053;DHT22;1536;51.098;6.414;2023-02-27T15:32:17;7.90;89.20
3053;DHT22;1536;51.098;6.414;2023-02-27T15:34:46;7.90;88.50
3053;DHT22;1536;51.098;6.414;2023-02-27T15:37:19;7.80;88.00
3053;DHT22;1536;51.098;6.414;2023-02-27T15:39:47;7.80;89.10
3053;DHT22;1536;51.098;6.414;2023-02-27T15:42:17;7.80;88.50
3053;DHT22;1536;51.098;6.414;2023-02-27T15:44:46;7.80;88.40
3053;DHT22;1536;51.098;6.414;2023-02-27T15:47:17;7.70;87.60
3053;DHT22;1536;51.098;6.414;2023-02-27T15:49:47;7.70;87.80
3053;DHT22;1536;51.098;6.414;2023-02-27T15:52:18;7.60;87.10
3053;DHT22;1536;51.098;6.414;2023-02-27T15:54:47;7.60;88.50
3053;DHT22;1536;51.098;6.414;2023-02-27T15:57:18;7.60;89.10
3053;DHT22;1536;51.098;6.414;2023-02-27T15:59:46;7.60;87.90
3053;DHT22;1536;51.098;6.414;2023-02-27T16:02:19;7.60;88.40
3053;DHT22;1536;51.098;6.414;2023-02-27T16:04:47;7.60;87.30
3053;DHT22;1536;51.098;6.414;2023-02-27T16:07:16;7.50;87.10
3053;DHT22;1536;51.098;6.414;2023-02-27T16:09:48;7.50;88.00
3053;DHT22;1536;51.098;6.414;2023-02-27T16:12:29;7.30;87.60
3053;DHT22;1536;51.098;6.414;2023-02-27T16:15:16;7.30;89.10
3053;DHT22;1536;51.098;6.414;2023-02-27T16:17:52;7.20;90.10
3053;DHT22;1536;51.098;6.414;2023-02-27T16:20:44;7.20;89.30
3053;DHT22;1536;51.098;6.414;2023-02-27T16:23:17;7.20;89.90
3053;DHT22;1536;51.098;6.414;2023-02-27T16:26:02;7.10;88.80
3053;DHT22;1536;51.098;6.414;2023-02-27T16:28:33;7.10;89.20
3053;DHT22;1536;51.098;6.414;2023-02-27T16:31:01;7.00;89.90
3053;DHT22;1536;51.098;6.414;2023-02-27T16:33:31;7.00;90.30
3053;DHT22;1536;51.098;6.414;2023-02-27T16:36:14;7.00;90.20
3053;DHT22;1536;51.098;6.414;2023-02-27T16:38:41;7.00;90.30
3053;DHT22;1536;51.098;6.414;2023-02-27T16:41:10;7.00;90.40
3053;DHT22;1536;51.098;6.414;2023-02-27T16:43:38;7.00;90.30
3053;DHT22;1536;51.098;6.414;2023-02-27T16:46:05;7.00;90.20
3053;DHT22;1536;51.098;6.414;2023-02-27T16:48:32;7.00;90.40
3053;DHT22;1536;51.098;6.414;2023-02-27T16:50:59;7.00;90.30
3053;DHT22;1536;51.098;6.414;2023-02-27T16:53:26;7.00;90.30
3053;DHT22;1536;51.098;6.414;2023-02-27T16:55:53;6.90;90.40
3053;DHT22;1536;51.098;6.414;2023-02-27T16:58:21;6.90;90.40
3053;DHT22;1536;51.098;6.414;2023-02-27T17:00:49;6.90;90.60
3053;DHT22;1536;51.098;6.414;2023-02-27T17:03:16;6.90;90.60